createdAt,value
2017-10-31T00:00:04.462Z,8.83
2017-10-31T00:00:08.461Z,8.90
2017-10-31T00:00:12.696Z,8.90
2017-10-31T00:00:17.153Z,9.07
2017-10-31T00:00:21.879Z,9.00
2017-10-31T00:00:26.304Z,9.00
2017-10-31T00:00:31.320Z,9.20
2017-10-31T00:00:35.563Z,9.20
2017-10-31T00:00:40.103Z,9.00
2017-10-31T00:00:44.330Z,9.10
2017-10-31T00:00:50.246Z,9.30
2017-10-31T00:00:54.479Z,9.33
2017-10-31T00:00:59.831Z,9.40
2017-10-31T00:01:04.091Z,9.40
2017-10-31T00:01:09.102Z,9.30
2017-10-31T00:01:14.116Z,9.30
2017-10-31T00:01:19.139Z,9.20
2017-10-31T00:01:24.160Z,9.40
2017-10-31T00:01:29.154Z,9.50
2017-10-31T00:01:33.398Z,9.50
2017-10-31T00:01:37.680Z,9.60
2017-10-31T00:01:41.932Z,9.60
2017-10-31T00:01:46.185Z,9.65
2017-10-31T00:01:51.195Z,9.47
2017-10-31T00:01:56.193Z,9.70
2017-10-31T00:02:00.473Z,9.60
2017-10-31T00:02:04.707Z,9.85
2017-10-31T00:02:09.730Z,10.00
2017-10-31T00:02:14.805Z,10.00
2017-10-31T00:02:19.046Z,9.83
2017-10-31T00:02:24.049Z,9.70
2017-10-31T00:02:28.304Z,9.87
2017-10-31T00:02:32.528Z,9.80
2017-10-31T00:02:36.757Z,9.95
2017-10-31T00:02:41.776Z,10.05
2017-10-31T00:02:46.011Z,9.93
2017-10-31T00:02:50.262Z,9.93
2017-10-31T00:02:54.488Z,9.80
2017-10-31T00:02:59.491Z,9.85
2017-10-31T00:03:04.516Z,9.90
2017-10-31T00:03:09.558Z,9.80
2017-10-31T00:03:13.822Z,9.83
2017-10-31T00:03:18.077Z,9.83
2017-10-31T00:03:22.334Z,9.80
2017-10-31T00:03:27.354Z,9.60
2017-10-31T00:04:50.659Z,9.05
2017-10-31T00:05:01.669Z,9.03
2017-10-31T00:05:05.907Z,9.10
2017-10-31T00:05:10.169Z,9.00
2017-10-31T00:05:15.896Z,9.20
2017-10-31T00:05:20.153Z,9.15
2017-10-31T00:05:24.809Z,9.30
2017-10-31T00:05:31.688Z,9.48
2017-10-31T00:05:36.734Z,9.53
2017-10-31T00:05:40.949Z,9.60
2017-10-31T00:05:45.284Z,9.40
2017-10-31T00:05:49.535Z,9.20
2017-10-31T00:05:53.762Z,9.35
2017-10-31T00:06:00.307Z,9.40
2017-10-31T00:06:04.530Z,9.60
2017-10-31T00:06:08.786Z,9.60
2017-10-31T00:06:13.013Z,9.70
2017-10-31T00:06:17.259Z,9.67
2017-10-31T00:06:21.521Z,9.80
2017-10-31T00:06:25.757Z,9.70
2017-10-31T00:06:30.005Z,9.75
2017-10-31T00:06:34.254Z,9.93
2017-10-31T00:06:39.255Z,10.00
2017-10-31T00:06:43.515Z,10.27
2017-10-31T00:06:47.750Z,10.55
2017-10-31T00:06:52.035Z,10.80
2017-10-31T00:06:56.290Z,10.90
2017-10-31T00:07:00.549Z,10.90
2017-10-31T00:07:04.805Z,11.05
2017-10-31T00:07:09.055Z,11.37
2017-10-31T00:07:13.281Z,11.40
2017-10-31T00:07:17.519Z,11.35
2017-10-31T00:07:21.773Z,11.10
2017-10-31T00:07:26.807Z,11.30
2017-10-31T00:07:31.066Z,11.30
2017-10-31T00:07:35.382Z,11.30
2017-10-31T00:07:39.631Z,11.20
2017-10-31T00:07:43.862Z,11.23
2017-10-31T00:07:48.108Z,11.25
2017-10-31T00:07:52.348Z,11.30
2017-10-31T00:07:56.686Z,11.50
2017-10-31T00:08:00.975Z,11.60
2017-10-31T00:08:05.281Z,11.60
2017-10-31T00:08:09.522Z,11.45
2017-10-31T00:08:13.761Z,11.47
2017-10-31T00:08:18.023Z,11.75
2017-10-31T00:08:22.277Z,12.00
2017-10-31T00:08:26.550Z,11.80
2017-10-31T00:08:30.862Z,11.80
2017-10-31T00:08:35.081Z,11.90
2017-10-31T00:08:39.354Z,11.95
2017-10-31T00:08:44.509Z,12.10
2017-10-31T00:08:48.737Z,12.00
2017-10-31T00:08:52.988Z,12.05
2017-10-31T00:08:57.225Z,11.75
2017-10-31T00:09:01.513Z,11.63
2017-10-31T00:09:05.748Z,11.60
2017-10-31T00:09:09.999Z,11.60
2017-10-31T00:09:14.233Z,11.70
2017-10-31T00:09:18.473Z,11.67
2017-10-31T00:09:22.738Z,11.50
2017-10-31T00:09:26.991Z,11.65
2017-10-31T00:09:31.255Z,11.80
2017-10-31T00:09:35.617Z,11.70
2017-10-31T00:09:39.861Z,11.80
2017-10-31T00:09:44.102Z,11.90
2017-10-31T00:09:48.363Z,12.03
2017-10-31T00:09:52.606Z,12.10
2017-10-31T00:09:56.851Z,12.20
2017-10-31T00:10:01.139Z,12.13
2017-10-31T00:10:05.387Z,11.95
2017-10-31T00:10:09.633Z,11.95
2017-10-31T00:10:13.905Z,11.80
2017-10-31T00:10:18.164Z,11.90
2017-10-31T00:10:22.405Z,12.25
2017-10-31T00:10:26.686Z,12.30
2017-10-31T00:10:30.971Z,12.33
2017-10-31T00:10:35.219Z,12.55
2017-10-31T00:10:40.227Z,12.60
2017-10-31T00:10:44.670Z,12.20
2017-10-31T00:10:49.266Z,11.90
2017-10-31T00:10:53.615Z,11.70
2017-10-31T00:10:58.171Z,11.80
2017-10-31T00:11:02.728Z,12.00
2017-10-31T00:11:07.090Z,11.97
2017-10-31T00:11:11.372Z,11.90
2017-10-31T00:11:16.414Z,12.00
2017-10-31T00:11:20.778Z,11.82
2017-10-31T00:11:25.083Z,11.80
2017-10-31T00:11:31.304Z,11.80
2017-10-31T00:11:35.777Z,11.88
2017-10-31T00:11:40.060Z,11.80
2017-10-31T00:11:44.405Z,12.30
2017-10-31T00:11:49.097Z,12.50
2017-10-31T00:11:54.009Z,12.40
2017-10-31T00:11:58.270Z,12.40
2017-10-31T00:12:02.516Z,12.30
2017-10-31T00:12:06.768Z,12.40
2017-10-31T00:12:11.029Z,12.40
2017-10-31T00:12:15.273Z,12.40
2017-10-31T00:12:20.323Z,12.37
2017-10-31T00:12:24.607Z,12.10
2017-10-31T00:12:28.821Z,12.00
2017-10-31T00:12:33.837Z,11.90
2017-10-31T00:12:38.096Z,11.90
2017-10-31T00:12:42.347Z,11.87
2017-10-31T00:12:46.611Z,11.60
2017-10-31T00:12:51.611Z,11.80
2017-10-31T00:12:55.867Z,11.73
2017-10-31T00:13:00.104Z,11.70
2017-10-31T00:13:04.364Z,11.90
2017-10-31T00:13:08.616Z,11.90
2017-10-31T00:13:12.862Z,11.90
2017-10-31T00:13:17.108Z,11.80
2017-10-31T00:13:21.381Z,11.77
2017-10-31T00:13:25.689Z,11.65
2017-10-31T00:13:29.925Z,11.60
2017-10-31T00:13:34.920Z,11.57
2017-10-31T00:13:39.175Z,11.40
2017-10-31T00:13:43.401Z,11.45
2017-10-31T00:13:47.670Z,11.40
2017-10-31T00:13:51.898Z,11.30
2017-10-31T00:13:56.155Z,11.50
2017-10-31T00:14:01.184Z,11.40
2017-10-31T00:14:06.208Z,11.40
2017-10-31T00:14:10.446Z,11.33
2017-10-31T00:14:14.755Z,11.20
2017-10-31T00:14:19.007Z,11.30
2017-10-31T00:14:23.249Z,11.20
2017-10-31T00:14:27.481Z,11.15
2017-10-31T00:14:32.499Z,10.85
2017-10-31T00:14:36.755Z,10.77
2017-10-31T00:14:41.227Z,10.73
2017-10-31T00:14:46.949Z,10.57
2017-10-31T00:14:51.202Z,10.53
2017-10-31T00:14:55.441Z,10.55
2017-10-31T00:15:00.462Z,10.67
2017-10-31T00:15:05.543Z,10.50
2017-10-31T00:15:09.824Z,10.57
2017-10-31T00:15:14.072Z,10.50
2017-10-31T00:15:18.317Z,10.40
2017-10-31T00:15:22.564Z,10.40
2017-10-31T00:15:26.835Z,10.47
2017-10-31T00:15:31.108Z,10.65
2017-10-31T00:15:35.362Z,10.85
2017-10-31T00:15:39.639Z,10.87
2017-10-31T00:15:44.679Z,10.70
2017-10-31T00:15:49.052Z,10.63
2017-10-31T00:15:53.465Z,10.40
2017-10-31T00:15:57.715Z,10.20
2017-10-31T00:16:02.726Z,10.20
2017-10-31T00:16:07.004Z,10.30
2017-10-31T00:16:11.246Z,10.05
2017-10-31T00:16:15.510Z,10.20
2017-10-31T00:16:19.764Z,10.20
2017-10-31T00:16:24.016Z,10.20
2017-10-31T00:16:28.268Z,10.10
2017-10-31T00:16:32.537Z,9.97
2017-10-31T00:16:38.089Z,9.80
2017-10-31T00:16:43.127Z,10.02
2017-10-31T00:16:47.374Z,10.00
2017-10-31T00:16:52.698Z,9.90
2017-10-31T00:16:56.932Z,9.87
2017-10-31T00:17:01.168Z,9.80
2017-10-31T00:17:05.407Z,9.65
2017-10-31T00:17:10.426Z,9.70
2017-10-31T00:17:15.417Z,9.70
2017-10-31T00:17:19.762Z,9.60
2017-10-31T00:17:24.738Z,9.60
2017-10-31T00:17:28.983Z,9.70
2017-10-31T00:17:33.240Z,9.57
2017-10-31T00:17:37.457Z,9.50
2017-10-31T00:17:42.454Z,9.40
2017-10-31T00:17:46.678Z,9.40
2017-10-31T00:17:50.942Z,9.40
2017-10-31T00:17:55.905Z,9.35
2017-10-31T00:18:00.170Z,9.50
2017-10-31T00:18:04.433Z,9.35
2017-10-31T00:18:08.673Z,9.30
2017-10-31T00:18:12.923Z,9.10
2017-10-31T00:18:17.146Z,9.20
2017-10-31T00:18:21.398Z,9.30
2017-10-31T00:18:26.420Z,9.30
2017-10-31T00:18:31.430Z,9.30
2017-10-31T00:18:35.675Z,9.30
2017-10-31T00:18:39.908Z,9.30
2017-10-31T00:18:44.137Z,9.20
2017-10-31T00:18:49.129Z,9.20
2017-10-31T00:18:53.361Z,9.23
2017-10-31T00:18:59.207Z,9.20
2017-10-31T00:19:03.439Z,9.60
2017-10-31T00:19:07.677Z,9.90
2017-10-31T00:19:11.920Z,10.05
2017-10-31T00:19:16.182Z,10.00
2017-10-31T00:19:20.414Z,9.90
2017-10-31T00:19:24.727Z,9.83
2017-10-31T00:19:28.971Z,9.90
2017-10-31T00:19:33.201Z,10.10
2017-10-31T00:19:37.435Z,9.90
2017-10-31T00:19:41.669Z,9.90
2017-10-31T00:19:45.955Z,10.00
2017-10-31T00:19:50.295Z,10.10
2017-10-31T00:19:55.293Z,10.03
2017-10-31T00:20:00.315Z,10.00
2017-10-31T00:20:04.564Z,9.47
2017-10-31T00:20:08.818Z,9.40
2017-10-31T00:20:13.821Z,9.25
2017-10-31T00:20:18.090Z,9.20
2017-10-31T00:20:22.326Z,9.23
2017-10-31T00:20:26.678Z,9.05
2017-10-31T00:20:30.893Z,8.85
2017-10-31T00:20:35.139Z,8.90
2017-10-31T00:20:40.155Z,8.90
2017-10-31T00:20:44.381Z,8.73
2017-10-31T00:20:48.747Z,8.70
2017-10-31T00:20:53.067Z,8.70
2017-10-31T00:20:57.347Z,8.70
2017-10-31T00:21:01.658Z,8.70
2017-10-31T00:21:06.109Z,8.65
2017-10-31T00:21:10.660Z,8.97
2017-10-31T00:21:15.651Z,9.20
2017-10-31T00:21:20.229Z,9.13
2017-10-31T00:21:24.657Z,9.30
2017-10-31T00:21:28.899Z,9.40
2017-10-31T00:21:33.155Z,9.40
2017-10-31T00:21:37.381Z,9.50
2017-10-31T00:21:41.717Z,9.50
2017-10-31T00:21:46.722Z,9.60
2017-10-31T00:21:51.752Z,9.60
2017-10-31T00:21:56.771Z,9.60
2017-10-31T00:22:01.774Z,9.60
2017-10-31T00:22:06.829Z,9.63
2017-10-31T00:22:11.061Z,9.37
2017-10-31T00:22:15.319Z,9.20
2017-10-31T00:22:19.558Z,9.20
2017-10-31T00:22:23.796Z,9.20
2017-10-31T00:22:28.806Z,9.25
2017-10-31T00:22:33.053Z,9.20
2017-10-31T00:22:37.766Z,9.25
2017-10-31T00:22:42.249Z,9.30
2017-10-31T00:22:48.070Z,9.20
2017-10-31T00:22:53.056Z,9.20
2017-10-31T00:22:59.512Z,9.20
2017-10-31T00:23:06.942Z,9.05
2017-10-31T00:23:11.220Z,9.02
2017-10-31T00:23:16.223Z,9.20
2017-10-31T00:23:20.469Z,9.13
2017-10-31T00:23:24.717Z,9.10
2017-10-31T00:23:28.951Z,9.20
2017-10-31T00:23:33.195Z,9.30
2017-10-31T00:23:37.435Z,9.33
2017-10-31T00:23:42.471Z,9.40
2017-10-31T00:23:46.688Z,9.47
2017-10-31T00:23:50.936Z,9.40
2017-10-31T00:23:55.185Z,9.30
2017-10-31T00:23:59.451Z,9.33
2017-10-31T00:24:04.449Z,9.50
2017-10-31T00:24:08.706Z,9.43
2017-10-31T00:24:13.076Z,9.20
2017-10-31T00:24:17.312Z,9.33
2017-10-31T00:24:21.562Z,9.60
2017-10-31T00:24:26.610Z,9.55
2017-10-31T00:24:30.869Z,9.23
2017-10-31T00:24:35.188Z,9.07
2017-10-31T00:24:39.484Z,8.95
2017-10-31T00:24:43.765Z,9.00
2017-10-31T00:24:48.857Z,8.97
2017-10-31T00:24:53.097Z,9.00
2017-10-31T00:24:57.321Z,9.10
2017-10-31T00:25:01.566Z,9.10
2017-10-31T00:25:05.805Z,9.20
2017-10-31T00:25:10.042Z,9.40
2017-10-31T00:25:14.316Z,9.50
2017-10-31T00:25:18.548Z,9.25
2017-10-31T00:25:22.793Z,9.15
2017-10-31T00:25:27.059Z,9.20
2017-10-31T00:25:31.287Z,9.10
2017-10-31T00:25:35.558Z,9.25
2017-10-31T00:25:39.781Z,9.50
2017-10-31T00:25:44.017Z,9.50
2017-10-31T00:25:49.021Z,9.60
2017-10-31T00:25:53.259Z,9.67
2017-10-31T00:25:57.485Z,9.60
2017-10-31T00:26:01.737Z,9.60
2017-10-31T00:26:05.993Z,9.50
2017-10-31T00:26:11.008Z,9.50
2017-10-31T00:26:16.132Z,9.60
2017-10-31T00:26:20.339Z,9.83
2017-10-31T00:26:24.582Z,10.03
2017-10-31T00:26:28.840Z,10.20
2017-10-31T00:26:33.069Z,10.20
2017-10-31T00:26:37.401Z,9.95
2017-10-31T00:26:41.701Z,9.93
2017-10-31T00:26:45.943Z,9.90
2017-10-31T00:26:50.181Z,9.90
2017-10-31T00:26:54.417Z,9.83
2017-10-31T00:26:58.653Z,9.70
2017-10-31T00:27:04.235Z,9.70
2017-10-31T00:27:08.471Z,9.70
2017-10-31T00:27:12.738Z,9.60
2017-10-31T00:27:16.965Z,9.55
2017-10-31T00:27:21.215Z,9.50
2017-10-31T00:27:25.467Z,9.43
2017-10-31T00:27:29.685Z,9.40
2017-10-31T00:27:33.941Z,9.50
2017-10-31T00:27:38.181Z,9.60
2017-10-31T00:27:42.409Z,9.70
2017-10-31T00:27:46.640Z,9.90
2017-10-31T00:27:51.019Z,10.05
2017-10-31T00:27:56.066Z,10.33
2017-10-31T00:28:00.297Z,10.83
2017-10-31T00:28:04.538Z,10.90
2017-10-31T00:28:08.803Z,11.10
2017-10-31T00:28:13.020Z,11.30
2017-10-31T00:28:18.036Z,11.40
2017-10-31T00:28:23.108Z,11.40
2017-10-31T00:28:27.340Z,11.70
2017-10-31T00:28:31.614Z,11.80
2017-10-31T00:28:35.898Z,11.75
2017-10-31T00:28:40.476Z,12.07
2017-10-31T00:28:44.745Z,12.10
2017-10-31T00:28:48.974Z,12.17
2017-10-31T00:28:53.201Z,12.25
2017-10-31T00:28:57.459Z,12.20
2017-10-31T00:29:02.445Z,12.20
2017-10-31T00:29:06.715Z,12.30
2017-10-31T00:29:10.985Z,12.20
2017-10-31T00:29:15.996Z,12.10
2017-10-31T00:29:21.145Z,12.33
2017-10-31T00:29:25.438Z,12.40
2017-10-31T00:29:29.782Z,12.30
2017-10-31T00:29:34.051Z,12.40
2017-10-31T00:29:38.290Z,12.65
2017-10-31T00:29:42.537Z,13.05
2017-10-31T00:29:46.777Z,13.10
2017-10-31T00:29:51.058Z,13.10
2017-10-31T00:29:55.477Z,12.80
2017-10-31T00:30:00.582Z,12.70
2017-10-31T00:30:04.875Z,12.83
2017-10-31T00:30:09.101Z,13.05
2017-10-31T00:30:13.393Z,13.15
2017-10-31T00:30:17.643Z,13.20
2017-10-31T00:30:21.891Z,13.40
2017-10-31T00:30:27.219Z,13.40
2017-10-31T00:30:31.593Z,13.40
2017-10-31T00:30:40.092Z,13.40
2017-10-31T00:30:49.336Z,12.85
2017-10-31T00:30:58.168Z,12.88
2017-10-31T00:31:04.018Z,13.38
2017-10-31T00:31:09.389Z,13.10
2017-10-31T00:31:13.619Z,13.10
2017-10-31T00:31:29.867Z,13.10
2017-10-31T00:31:35.846Z,14.00
2017-10-31T00:31:41.201Z,14.10
2017-10-31T00:31:45.429Z,14.37
2017-10-31T00:31:49.665Z,14.55
2017-10-31T00:31:53.933Z,14.60
2017-10-31T00:31:58.392Z,14.60
2017-10-31T00:32:02.641Z,14.60
2017-10-31T00:32:06.907Z,14.75
2017-10-31T00:32:11.188Z,14.93
2017-10-31T00:32:15.421Z,14.80
2017-10-31T00:32:20.433Z,14.70
2017-10-31T00:32:25.469Z,14.47
2017-10-31T00:32:30.484Z,14.20
2017-10-31T00:32:34.736Z,13.83
2017-10-31T00:32:38.978Z,13.70
2017-10-31T00:32:44.004Z,13.45
2017-10-31T00:32:49.014Z,13.17
2017-10-31T00:32:54.019Z,13.03
2017-10-31T00:32:58.287Z,13.00
2017-10-31T00:33:02.534Z,12.90
2017-10-31T00:33:07.529Z,12.87
2017-10-31T00:33:11.787Z,12.70
2017-10-31T00:33:16.012Z,12.55
2017-10-31T00:33:20.261Z,12.35
2017-10-31T00:33:24.509Z,12.05
2017-10-31T00:33:28.765Z,11.83
2017-10-31T00:33:32.998Z,11.80
2017-10-31T00:33:37.237Z,11.55
2017-10-31T00:33:41.476Z,11.25
2017-10-31T00:33:45.723Z,11.17
2017-10-31T00:33:49.984Z,10.85
2017-10-31T00:33:54.223Z,10.70
2017-10-31T00:33:58.486Z,10.40
2017-10-31T00:34:02.718Z,10.10
2017-10-31T00:34:06.968Z,9.65
2017-10-31T00:34:11.248Z,9.50
2017-10-31T00:34:16.292Z,9.40
2017-10-31T00:34:20.549Z,9.60
2017-10-31T00:34:24.784Z,9.70
2017-10-31T00:34:29.028Z,9.60
2017-10-31T00:34:33.286Z,9.33
2017-10-31T00:34:38.283Z,9.20
2017-10-31T00:34:43.290Z,9.23
2017-10-31T00:34:47.537Z,9.27
2017-10-31T00:34:51.767Z,9.40
2017-10-31T00:34:56.027Z,9.30
2017-10-31T00:35:00.271Z,9.50
2017-10-31T00:35:04.511Z,9.60
2017-10-31T00:35:09.741Z,9.80
2017-10-31T00:35:13.978Z,9.90
2017-10-31T00:35:18.213Z,9.70
2017-10-31T00:35:23.226Z,9.60
2017-10-31T00:35:27.469Z,9.60
2017-10-31T00:35:31.693Z,9.70
2017-10-31T00:35:36.722Z,9.60
2017-10-31T00:35:40.960Z,9.50
2017-10-31T00:35:46.054Z,9.40
2017-10-31T00:35:50.293Z,9.20
2017-10-31T00:35:54.518Z,9.00
2017-10-31T00:35:58.745Z,8.75
2017-10-31T00:36:02.986Z,8.70
2017-10-31T00:36:08.001Z,8.70
2017-10-31T00:36:13.020Z,8.47
2017-10-31T00:36:18.039Z,8.23
2017-10-31T00:36:23.055Z,8.03
2017-10-31T00:36:27.293Z,8.03
2017-10-31T00:36:31.516Z,7.95
2017-10-31T00:36:35.757Z,8.10
2017-10-31T00:36:40.780Z,8.30
2017-10-31T00:36:45.060Z,8.53
2017-10-31T00:36:49.274Z,8.50
2017-10-31T00:36:54.277Z,8.50
2017-10-31T00:36:58.501Z,8.60
2017-10-31T00:37:02.753Z,8.70
2017-10-31T00:37:07.044Z,8.70
2017-10-31T00:37:11.288Z,8.75
2017-10-31T00:37:15.542Z,9.07
2017-10-31T00:37:19.788Z,9.20
2017-10-31T00:37:24.799Z,9.10
2017-10-31T00:37:29.815Z,9.13
2017-10-31T00:37:34.065Z,9.20
2017-10-31T00:37:38.599Z,9.30
2017-10-31T00:37:42.848Z,9.40
2017-10-31T00:37:47.114Z,9.45
2017-10-31T00:37:52.120Z,9.70
2017-10-31T00:37:57.284Z,9.70
2017-10-31T00:38:01.529Z,9.80
2017-10-31T00:38:05.776Z,9.80
2017-10-31T00:38:10.034Z,9.90
2017-10-31T00:38:14.273Z,9.87
2017-10-31T00:38:19.272Z,9.70
2017-10-31T00:38:23.560Z,9.80
2017-10-31T00:38:27.804Z,9.90
2017-10-31T00:38:32.811Z,9.85
2017-10-31T00:38:37.797Z,9.50
2017-10-31T00:38:42.032Z,9.27
2017-10-31T00:38:46.273Z,8.90
2017-10-31T00:38:50.520Z,8.80
2017-10-31T00:38:55.515Z,8.80
2017-10-31T00:38:59.745Z,8.70
2017-10-31T00:39:04.778Z,8.45
2017-10-31T00:39:09.010Z,8.50
2017-10-31T00:39:13.251Z,8.40
2017-10-31T00:39:18.255Z,8.50
2017-10-31T00:39:22.491Z,8.43
2017-10-31T00:39:26.737Z,8.35
2017-10-31T00:39:30.989Z,8.27
2017-10-31T00:39:35.989Z,8.50
2017-10-31T00:39:41.014Z,8.60
2017-10-31T00:39:45.255Z,8.70
2017-10-31T00:39:49.489Z,8.80
2017-10-31T00:39:53.731Z,8.80
2017-10-31T00:39:57.968Z,9.07
2017-10-31T00:40:02.199Z,9.10
2017-10-31T00:40:06.574Z,8.95
2017-10-31T00:40:10.822Z,8.93
2017-10-31T00:40:15.068Z,8.90
2017-10-31T00:40:19.319Z,9.00
2017-10-31T00:40:24.315Z,9.00
2017-10-31T00:40:28.538Z,9.00
2017-10-31T00:40:32.782Z,8.90
2017-10-31T00:40:37.017Z,8.70
2017-10-31T00:40:42.026Z,8.65
2017-10-31T00:40:46.429Z,8.57
2017-10-31T00:40:50.666Z,8.30
2017-10-31T00:40:54.902Z,8.25
2017-10-31T00:40:59.142Z,8.00
2017-10-31T00:41:04.130Z,8.10
2017-10-31T00:41:08.358Z,8.03
2017-10-31T00:41:13.370Z,7.87
2017-10-31T00:41:18.384Z,7.73
2017-10-31T00:41:22.634Z,7.90
2017-10-31T00:41:26.876Z,8.00
2017-10-31T00:41:31.134Z,8.10
2017-10-31T00:41:35.357Z,8.20
2017-10-31T00:41:39.659Z,8.25
2017-10-31T00:41:43.907Z,8.25
2017-10-31T00:41:48.904Z,8.20
2017-10-31T00:41:53.167Z,8.20
2017-10-31T00:41:57.393Z,8.23
2017-10-31T00:42:01.696Z,8.15
2017-10-31T00:42:05.934Z,8.00
2017-10-31T00:42:10.168Z,8.03
2017-10-31T00:42:14.417Z,8.25
2017-10-31T00:42:19.441Z,8.30
2017-10-31T00:42:24.439Z,7.97
2017-10-31T00:42:28.676Z,7.90
2017-10-31T00:42:32.927Z,7.90
2017-10-31T00:42:37.179Z,7.90
2017-10-31T00:42:41.401Z,8.00
2017-10-31T00:42:45.630Z,8.10
2017-10-31T00:42:49.866Z,8.20
2017-10-31T00:42:54.107Z,8.20
2017-10-31T00:42:58.326Z,8.20
2017-10-31T00:43:02.560Z,8.35
2017-10-31T00:43:06.836Z,8.55
2017-10-31T00:43:11.088Z,8.67
2017-10-31T00:43:15.323Z,8.55
2017-10-31T00:43:19.549Z,8.55
2017-10-31T00:43:24.638Z,8.60
2017-10-31T00:43:28.854Z,8.60
2017-10-31T00:43:33.076Z,8.50
2017-10-31T00:43:38.084Z,8.50
2017-10-31T00:43:43.076Z,8.40
2017-10-31T00:43:47.308Z,8.50
2017-10-31T00:43:52.328Z,8.60
2017-10-31T00:43:57.314Z,8.73
2017-10-31T00:44:01.554Z,8.70
2017-10-31T00:44:05.811Z,8.60
2017-10-31T00:44:10.061Z,8.65
2017-10-31T00:44:14.299Z,8.50
2017-10-31T00:44:18.542Z,8.60
2017-10-31T00:44:23.552Z,8.63
2017-10-31T00:44:28.556Z,8.53
2017-10-31T00:44:32.800Z,8.50
2017-10-31T00:44:37.035Z,8.55
2017-10-31T00:44:41.281Z,8.65
2017-10-31T00:44:46.287Z,8.60
2017-10-31T00:44:51.279Z,8.40
2017-10-31T00:44:55.509Z,8.37
2017-10-31T00:45:00.514Z,8.40
2017-10-31T00:45:04.733Z,8.50
2017-10-31T00:45:09.743Z,8.30
2017-10-31T00:45:14.030Z,8.40
2017-10-31T00:45:18.284Z,8.30
2017-10-31T00:45:22.541Z,8.30
2017-10-31T00:45:27.553Z,8.50
2017-10-31T00:45:31.781Z,8.50
2017-10-31T00:45:36.019Z,8.45
2017-10-31T00:45:40.297Z,8.30
2017-10-31T00:45:44.535Z,8.20
2017-10-31T00:45:48.788Z,8.35
2017-10-31T00:45:53.062Z,8.40
2017-10-31T00:45:57.279Z,8.50
2017-10-31T00:46:01.534Z,8.35
2017-10-31T00:46:05.774Z,8.30
2017-10-31T00:46:10.766Z,8.50
2017-10-31T00:46:15.022Z,8.60
2017-10-31T00:46:19.259Z,8.60
2017-10-31T00:46:23.495Z,8.50
2017-10-31T00:46:27.722Z,8.50
2017-10-31T00:46:31.953Z,8.50
2017-10-31T00:46:36.199Z,8.60
2017-10-31T00:46:40.425Z,8.70
2017-10-31T00:46:44.673Z,8.75
2017-10-31T00:46:49.710Z,8.53
2017-10-31T00:46:53.954Z,8.40
2017-10-31T00:46:58.179Z,8.20
2017-10-31T00:47:02.408Z,8.10
2017-10-31T00:47:06.634Z,8.10
2017-10-31T00:47:10.883Z,7.97
2017-10-31T00:47:15.100Z,8.00
2017-10-31T00:47:19.349Z,8.00
2017-10-31T00:47:23.569Z,8.00
2017-10-31T00:47:27.809Z,8.07
2017-10-31T00:47:32.062Z,8.10
2017-10-31T00:47:36.288Z,8.20
2017-10-31T00:47:41.281Z,8.15
2017-10-31T00:47:45.510Z,8.10
2017-10-31T00:47:50.533Z,8.27
2017-10-31T00:47:54.793Z,8.53
2017-10-31T00:47:59.018Z,8.60
2017-10-31T00:48:04.015Z,8.60
2017-10-31T00:48:08.279Z,8.60
2017-10-31T00:48:12.547Z,8.50
2017-10-31T00:48:17.568Z,8.50
2017-10-31T00:48:21.820Z,8.67
2017-10-31T00:48:26.058Z,8.60
2017-10-31T00:48:31.052Z,8.70
2017-10-31T00:48:35.300Z,8.60
2017-10-31T00:48:39.557Z,8.40
2017-10-31T00:48:43.790Z,8.45
2017-10-31T00:48:48.042Z,8.60
2017-10-31T00:48:52.293Z,8.50
2017-10-31T00:48:57.334Z,8.40
2017-10-31T00:49:01.626Z,8.40
2017-10-31T00:49:06.617Z,8.40
2017-10-31T00:49:11.629Z,8.57
2017-10-31T00:49:15.944Z,8.60
2017-10-31T00:49:23.169Z,8.60
2017-10-31T00:49:27.432Z,8.60
2017-10-31T00:49:31.686Z,8.60
2017-10-31T00:49:35.943Z,8.65
2017-10-31T00:49:40.243Z,8.70
2017-10-31T00:49:44.491Z,8.80
2017-10-31T00:49:48.780Z,8.65
2017-10-31T00:49:53.008Z,8.60
2017-10-31T00:49:58.012Z,8.70
2017-10-31T00:50:02.267Z,8.73
2017-10-31T00:50:06.510Z,8.70
2017-10-31T00:50:10.767Z,8.70
2017-10-31T00:50:15.013Z,8.70
2017-10-31T00:50:19.229Z,8.70
2017-10-31T00:50:24.229Z,8.60
2017-10-31T00:50:28.478Z,8.57
2017-10-31T00:50:32.715Z,8.50
2017-10-31T00:50:36.959Z,8.40
2017-10-31T00:50:41.210Z,8.50
2017-10-31T00:50:45.442Z,8.40
2017-10-31T00:50:50.460Z,8.20
2017-10-31T00:50:55.481Z,8.15
2017-10-31T00:51:00.495Z,8.20
2017-10-31T00:51:05.503Z,8.20
2017-10-31T00:51:09.738Z,8.03
2017-10-31T00:51:13.998Z,8.05
2017-10-31T00:51:18.219Z,8.00
2017-10-31T00:51:23.215Z,7.90
2017-10-31T00:51:27.471Z,7.90
2017-10-31T00:51:31.713Z,7.97
2017-10-31T00:51:36.015Z,7.90
2017-10-31T00:51:40.266Z,7.75
2017-10-31T00:51:44.502Z,7.70
2017-10-31T00:51:48.738Z,7.80
2017-10-31T00:51:53.740Z,7.75
2017-10-31T00:51:57.971Z,7.63
2017-10-31T00:52:02.217Z,7.45
2017-10-31T00:52:06.456Z,7.43
2017-10-31T00:52:11.464Z,7.55
2017-10-31T00:52:15.733Z,7.50
2017-10-31T00:52:19.987Z,7.45
2017-10-31T00:52:24.233Z,7.40
2017-10-31T00:52:28.499Z,7.40
2017-10-31T00:52:32.780Z,7.30
2017-10-31T00:52:37.090Z,7.30
2017-10-31T00:52:41.352Z,7.20
2017-10-31T00:52:45.610Z,7.30
2017-10-31T00:52:49.922Z,7.30
2017-10-31T00:52:54.171Z,7.33
2017-10-31T00:52:59.178Z,7.40
2017-10-31T00:53:03.447Z,7.40
2017-10-31T00:53:07.849Z,7.30
2017-10-31T00:53:12.124Z,7.30
2017-10-31T00:53:16.560Z,7.35
2017-10-31T00:53:20.824Z,7.65
2017-10-31T00:53:25.088Z,7.70
2017-10-31T00:53:29.337Z,7.65
2017-10-31T00:53:33.574Z,7.70
2017-10-31T00:53:37.858Z,7.80
2017-10-31T00:53:42.124Z,7.90
2017-10-31T00:53:46.375Z,7.80
2017-10-31T00:53:50.623Z,8.00
2017-10-31T00:53:54.857Z,8.00
2017-10-31T00:53:59.114Z,7.90
2017-10-31T00:54:04.131Z,7.90
2017-10-31T00:54:09.180Z,7.80
2017-10-31T00:54:13.407Z,7.80
2017-10-31T00:54:17.621Z,7.55
2017-10-31T00:54:21.881Z,7.40
2017-10-31T00:54:26.111Z,7.30
2017-10-31T00:54:30.347Z,7.25
2017-10-31T00:54:35.387Z,7.10
2017-10-31T00:54:39.625Z,7.00
2017-10-31T00:54:43.890Z,6.93
2017-10-31T00:54:48.138Z,6.85
2017-10-31T00:54:52.361Z,6.50
2017-10-31T00:54:57.385Z,6.60
2017-10-31T00:55:02.391Z,6.70
2017-10-31T00:55:09.157Z,7.00
2017-10-31T00:55:14.195Z,6.90
2017-10-31T00:55:18.428Z,6.87
2017-10-31T00:55:22.736Z,6.80
2017-10-31T00:55:26.971Z,6.80
2017-10-31T00:55:31.983Z,6.80
2017-10-31T00:55:36.981Z,6.97
2017-10-31T00:55:41.336Z,6.90
2017-10-31T00:55:45.569Z,7.00
2017-10-31T00:55:51.080Z,7.10
2017-10-31T00:55:55.411Z,7.10
2017-10-31T00:55:59.668Z,7.20
2017-10-31T00:56:04.129Z,7.05
2017-10-31T00:56:08.370Z,6.97
2017-10-31T00:56:12.615Z,7.00
2017-10-31T00:56:16.852Z,7.20
2017-10-31T00:56:21.837Z,7.20
2017-10-31T00:56:26.287Z,7.23
2017-10-31T00:56:30.536Z,7.27
2017-10-31T00:56:34.761Z,7.20
2017-10-31T00:56:39.758Z,7.20
2017-10-31T00:56:43.994Z,7.30
2017-10-31T00:56:48.980Z,7.30
2017-10-31T00:56:53.279Z,7.30
2017-10-31T00:56:57.530Z,7.30
2017-10-31T00:57:01.753Z,7.30
2017-10-31T00:57:06.012Z,7.30
2017-10-31T00:57:10.263Z,7.30
2017-10-31T00:57:14.490Z,7.30
2017-10-31T00:57:19.525Z,7.35
2017-10-31T00:57:24.521Z,7.40
2017-10-31T00:57:28.753Z,7.37
2017-10-31T00:57:32.996Z,7.50
2017-10-31T00:57:37.235Z,7.35
2017-10-31T00:57:42.231Z,7.40
2017-10-31T00:57:46.457Z,7.43
2017-10-31T00:57:50.697Z,7.50
2017-10-31T00:57:55.696Z,7.40
2017-10-31T00:57:59.942Z,7.37
2017-10-31T00:58:04.191Z,7.40
2017-10-31T00:58:08.421Z,7.50
2017-10-31T00:58:12.663Z,7.40
2017-10-31T00:58:17.713Z,7.30
2017-10-31T00:58:22.694Z,7.30
2017-10-31T00:58:26.917Z,7.30
2017-10-31T00:58:31.179Z,7.30
2017-10-31T00:58:35.433Z,7.45
2017-10-31T00:58:39.683Z,7.77
2017-10-31T00:58:43.919Z,7.80
2017-10-31T00:58:48.203Z,7.65
2017-10-31T00:58:52.474Z,7.60
2017-10-31T00:58:56.729Z,7.60
2017-10-31T00:59:01.012Z,7.75
2017-10-31T00:59:05.224Z,7.70
2017-10-31T00:59:09.474Z,7.50
2017-10-31T00:59:13.722Z,7.60
2017-10-31T00:59:17.965Z,7.60
2017-10-31T00:59:22.208Z,7.40
2017-10-31T00:59:27.210Z,7.40
2017-10-31T00:59:31.454Z,7.50
2017-10-31T00:59:35.691Z,7.25
2017-10-31T00:59:39.945Z,7.00
2017-10-31T00:59:44.177Z,6.90
2017-10-31T00:59:48.439Z,7.00
2017-10-31T00:59:52.673Z,7.15
2017-10-31T00:59:56.911Z,7.20
2017-10-31T01:00:01.917Z,7.00
2017-10-31T01:00:06.175Z,7.10
2017-10-31T01:00:10.425Z,7.10
2017-10-31T01:00:14.663Z,7.05
2017-10-31T01:00:18.903Z,7.00
2017-10-31T01:00:23.189Z,7.00
2017-10-31T01:00:27.411Z,7.00
2017-10-31T01:00:31.897Z,6.90
2017-10-31T01:00:36.164Z,6.90
2017-10-31T01:00:40.423Z,6.90
2017-10-31T01:00:44.654Z,6.90